createdAt,value
2018-06-14T00:00:26.582Z,0
2018-06-14T00:01:06.956Z,0
2018-06-14T00:01:47.384Z,0
2018-06-14T00:02:27.863Z,0
2018-06-14T00:03:08.188Z,0
2018-06-14T00:03:48.580Z,0
2018-06-14T00:04:29.031Z,0
2018-06-14T00:05:09.517Z,0
2018-06-14T00:05:49.915Z,0
2018-06-14T00:06:30.239Z,0
2018-06-14T00:07:10.648Z,0
2018-06-14T00:07:51.111Z,0
2018-06-14T00:08:31.495Z,0
2018-06-14T00:09:11.926Z,0
2018-06-14T00:09:52.277Z,0
2018-06-14T00:10:32.768Z,0
2018-06-14T00:11:13.174Z,0
2018-06-14T00:11:53.774Z,0
2018-06-14T00:12:34.150Z,0
2018-06-14T00:13:14.397Z,0
2018-06-14T00:13:54.793Z,0
2018-06-14T00:14:35.316Z,0
2018-06-14T00:15:16.055Z,0
2018-06-14T00:15:56.441Z,0
2018-06-14T00:16:36.793Z,0
2018-06-14T00:17:17.234Z,0
2018-06-14T00:17:57.594Z,0
2018-06-14T00:18:38.459Z,0
2018-06-14T00:19:19.008Z,0
2018-06-14T00:19:59.133Z,0
2018-06-14T00:20:39.567Z,0
2018-06-14T00:21:20.037Z,0
2018-06-14T00:22:00.502Z,0
2018-06-14T00:22:40.968Z,0
2018-06-14T00:23:21.255Z,0
2018-06-14T00:24:01.685Z,0
2018-06-14T00:24:42.090Z,0
2018-06-14T00:25:22.536Z,0
2018-06-14T00:26:02.979Z,0
2018-06-14T00:26:43.380Z,0
2018-06-14T00:27:23.787Z,0
2018-06-14T00:28:04.181Z,0
2018-06-14T00:28:44.602Z,0
2018-06-14T00:29:25.070Z,0
2018-06-14T00:30:05.356Z,0
2018-06-14T00:30:45.889Z,0
2018-06-14T00:31:26.248Z,0
2018-06-14T00:32:06.691Z,0
2018-06-14T00:32:47.094Z,0
2018-06-14T00:33:27.504Z,0
2018-06-14T00:34:07.839Z,0
2018-06-14T00:34:48.214Z,0
2018-06-14T00:35:28.868Z,0
2018-06-14T00:36:09.396Z,0
2018-06-14T00:36:49.821Z,0
2018-06-14T00:37:30.266Z,0
2018-06-14T00:38:10.681Z,0
2018-06-14T00:38:51.168Z,0
2018-06-14T00:39:31.629Z,0
2018-06-14T00:40:12.017Z,0
2018-06-14T00:40:52.338Z,0
2018-06-14T00:41:32.759Z,0
2018-06-14T00:42:13.280Z,0
2018-06-14T00:42:53.664Z,0
2018-06-14T00:43:34.058Z,0
2018-06-14T00:44:14.438Z,0
2018-06-14T00:44:54.855Z,0
2018-06-14T00:45:35.269Z,0
2018-06-14T00:46:15.704Z,0
2018-06-14T00:46:56.065Z,0
2018-06-14T00:47:36.526Z,0
2018-06-14T00:48:16.874Z,0
2018-06-14T00:48:57.316Z,0
2018-06-14T00:49:37.759Z,0
2018-06-14T00:50:18.094Z,0
2018-06-14T00:50:58.636Z,0
2018-06-14T00:51:39.223Z,0
2018-06-14T00:52:20.262Z,0
2018-06-14T00:53:00.271Z,0
2018-06-14T00:53:40.856Z,0
2018-06-14T00:54:21.238Z,0
2018-06-14T00:55:01.629Z,0
2018-06-14T00:55:41.995Z,0
2018-06-14T00:56:23.119Z,0
2018-06-14T00:57:03.392Z,0
2018-06-14T00:57:43.851Z,0
2018-06-14T00:58:24.265Z,0
2018-06-14T00:59:04.753Z,0
2018-06-14T00:59:45.490Z,0
2018-06-14T01:00:25.842Z,0
2018-06-14T01:01:06.688Z,0
2018-06-14T01:01:48.968Z,0
2018-06-14T01:02:29.191Z,0
2018-06-14T01:03:09.580Z,0
2018-06-14T01:03:49.963Z,0
2018-06-14T01:04:30.329Z,0
2018-06-14T01:05:10.842Z,0
2018-06-14T01:05:51.178Z,0
2018-06-14T01:06:31.649Z,0
2018-06-14T01:07:12.067Z,0
2018-06-14T01:07:52.976Z,0
2018-06-14T01:08:33.285Z,0
2018-06-14T01:09:13.647Z,0
2018-06-14T01:09:54.079Z,0
2018-06-14T01:10:34.485Z,0
2018-06-14T01:11:14.897Z,0
2018-06-14T01:11:55.301Z,0
2018-06-14T01:12:35.708Z,0
2018-06-14T01:13:16.173Z,0
2018-06-14T01:13:58.357Z,0
2018-06-14T01:14:38.556Z,0
2018-06-14T01:15:18.983Z,0
2018-06-14T01:15:59.345Z,0
2018-06-14T01:16:39.841Z,0
2018-06-14T01:17:20.210Z,0
2018-06-14T01:18:00.639Z,0
2018-06-14T01:18:40.996Z,0
2018-06-14T01:19:21.595Z,0
2018-06-14T01:20:02.146Z,0
2018-06-14T01:20:42.571Z,0
2018-06-14T01:21:22.853Z,0
2018-06-14T01:22:03.276Z,0
2018-06-14T01:22:43.674Z,0
2018-06-14T01:23:24.094Z,0
2018-06-14T01:24:04.600Z,0
2018-06-14T01:24:44.891Z,0
2018-06-14T01:25:25.322Z,0
2018-06-14T01:26:05.731Z,0
2018-06-14T01:26:46.161Z,0
2018-06-14T01:27:27.202Z,0
2018-06-14T01:28:07.700Z,0
2018-06-14T01:28:49.607Z,0
2018-06-14T01:29:30.112Z,0
2018-06-14T01:30:10.438Z,0
2018-06-14T01:30:50.936Z,0
2018-06-14T01:31:31.552Z,0
2018-06-14T01:32:11.935Z,0
2018-06-14T01:32:52.287Z,0
2018-06-14T01:33:33.678Z,0
2018-06-14T01:34:14.243Z,0
2018-06-14T01:34:55.088Z,0
2018-06-14T01:35:35.354Z,0
2018-06-14T01:36:15.787Z,0
2018-06-14T01:36:56.579Z,0
2018-06-14T01:37:36.972Z,0
2018-06-14T01:38:18.158Z,0
2018-06-14T01:38:58.436Z,0
2018-06-14T01:39:38.714Z,0
2018-06-14T01:40:19.104Z,0
2018-06-14T01:40:59.534Z,0
2018-06-14T01:41:40.080Z,0
2018-06-14T01:42:20.335Z,0
2018-06-14T01:43:01.884Z,0
2018-06-14T01:43:43.408Z,0
2018-06-14T01:44:23.774Z,0
2018-06-14T01:45:04.363Z,0
2018-06-14T01:45:44.703Z,0
2018-06-14T01:46:26.590Z,0
2018-06-14T01:47:07.849Z,0
2018-06-14T01:47:47.371Z,0
2018-06-14T01:48:27.765Z,0
2018-06-14T01:49:08.253Z,0
2018-06-14T01:49:48.931Z,0
2018-06-14T01:50:31.304Z,0
2018-06-14T01:51:11.790Z,0
2018-06-14T01:51:52.195Z,0
2018-06-14T01:52:33.935Z,0
2018-06-14T01:53:16.155Z,0
2018-06-14T01:53:56.451Z,0
2018-06-14T01:54:36.845Z,0
2018-06-14T01:55:17.273Z,0
2018-06-14T01:55:57.612Z,0
2018-06-14T01:56:38.018Z,0
2018-06-14T01:57:18.499Z,0
2018-06-14T01:57:58.865Z,0
2018-06-14T01:58:39.298Z,0
2018-06-14T01:59:19.839Z,0
2018-06-14T02:00:00.882Z,0
2018-06-14T02:00:41.339Z,0
2018-06-14T02:01:22.147Z,0
2018-06-14T02:02:02.366Z,0
2018-06-14T02:02:42.847Z,0
2018-06-14T02:03:23.196Z,0
2018-06-14T02:04:04.405Z,0
2018-06-14T02:04:45.201Z,0
2018-06-14T02:05:25.543Z,0
2018-06-14T02:06:05.850Z,0
2018-06-14T02:06:46.234Z,0
2018-06-14T02:07:26.645Z,0
2018-06-14T02:08:07.161Z,0
2018-06-14T02:08:48.671Z,0
2018-06-14T02:09:28.963Z,0
2018-06-14T02:10:09.402Z,0
2018-06-14T02:10:51.410Z,0
2018-06-14T02:11:31.503Z,0
2018-06-14T02:12:13.767Z,0
2018-06-14T02:12:54.670Z,0
2018-06-14T02:13:36.953Z,0
2018-06-14T02:14:17.727Z,0
2018-06-14T02:14:57.999Z,0
2018-06-14T02:15:38.412Z,0
2018-06-14T02:16:19.151Z,0
2018-06-14T02:16:59.958Z,0
2018-06-14T02:17:41.245Z,0
2018-06-14T02:18:21.602Z,0
2018-06-14T02:19:01.999Z,0
2018-06-14T02:19:42.722Z,0
2018-06-14T02:20:23.013Z,0
2018-06-14T02:21:03.680Z,0
2018-06-14T02:21:44.265Z,0
2018-06-14T02:22:24.706Z,0
2018-06-14T02:23:05.067Z,0
2018-06-14T02:23:45.844Z,0
2018-06-14T02:24:26.058Z,0
2018-06-14T02:25:06.547Z,0
2018-06-14T02:25:46.846Z,0
2018-06-14T02:26:27.260Z,0
2018-06-14T02:27:07.710Z,0
2018-06-14T02:27:48.112Z,0
2018-06-14T02:28:28.665Z,0
2018-06-14T02:29:08.989Z,0
2018-06-14T02:29:50.132Z,0
2018-06-14T02:30:30.512Z,0
2018-06-14T02:31:10.881Z,0
2018-06-14T02:31:51.337Z,0
2018-06-14T02:32:32.254Z,0
2018-06-14T02:33:12.812Z,0
2018-06-14T02:33:53.256Z,0
2018-06-14T02:34:33.932Z,0
2018-06-14T02:35:14.489Z,0
2018-06-14T02:35:54.899Z,0
2018-06-14T02:36:36.074Z,0
2018-06-14T02:37:18.104Z,0
2018-06-14T02:37:58.447Z,0
2018-06-14T02:38:38.817Z,0
2018-06-14T02:39:19.271Z,0
2018-06-14T02:40:00.453Z,0
2018-06-14T02:40:40.794Z,0
2018-06-14T02:41:21.205Z,0
2018-06-14T02:42:01.661Z,0
2018-06-14T02:42:42.181Z,0
2018-06-14T02:43:22.411Z,0
2018-06-14T02:44:02.895Z,0
2018-06-14T02:44:43.320Z,0
2018-06-14T02:45:23.688Z,0
2018-06-14T02:46:04.196Z,0
2018-06-14T02:46:45.654Z,0
2018-06-14T02:47:26.089Z,0
2018-06-14T02:48:06.983Z,0
2018-06-14T02:48:47.331Z,0
2018-06-14T02:49:27.813Z,0
2018-06-14T02:50:08.229Z,0
2018-06-14T02:50:48.615Z,0
2018-06-14T02:51:29.064Z,0
2018-06-14T02:52:09.390Z,0
2018-06-14T02:52:49.756Z,0
2018-06-14T02:53:30.165Z,0
2018-06-14T02:54:10.956Z,0
2018-06-14T02:54:51.247Z,0
2018-06-14T02:55:32.358Z,0
2018-06-14T02:56:12.807Z,0
2018-06-14T02:56:53.181Z,0
2018-06-14T02:57:34.324Z,0
2018-06-14T02:58:14.945Z,0
2018-06-14T02:58:55.393Z,0
2018-06-14T02:59:37.813Z,0
2018-06-14T03:00:18.968Z,0
2018-06-14T03:01:01.887Z,0
2018-06-14T03:01:41.668Z,0
2018-06-14T03:02:22.052Z,0
2018-06-14T03:03:03.451Z,0
2018-06-14T03:03:44.008Z,0
2018-06-14T03:04:24.545Z,0
2018-06-14T03:05:05.206Z,0
2018-06-14T03:05:45.476Z,0
2018-06-14T03:06:25.884Z,0
2018-06-14T03:07:06.716Z,0
2018-06-14T03:07:47.340Z,0
2018-06-14T03:08:27.622Z,0
2018-06-14T03:09:11.631Z,0
2018-06-14T03:09:52.024Z,0
2018-06-14T03:10:32.410Z,0
2018-06-14T03:11:12.918Z,0
2018-06-14T03:11:54.428Z,0
2018-06-14T03:12:35.180Z,0
2018-06-14T03:13:15.421Z,0
2018-06-14T03:13:56.331Z,0
2018-06-14T03:14:39.168Z,0
2018-06-14T03:15:19.608Z,0
2018-06-14T03:16:00.002Z,0
2018-06-14T03:16:41.301Z,0
2018-06-14T03:17:22.187Z,0
2018-06-14T03:18:02.754Z,0
2018-06-14T03:18:43.158Z,0
2018-06-14T03:19:23.523Z,0
2018-06-14T03:20:04.241Z,0
2018-06-14T03:20:44.392Z,0
2018-06-14T03:21:25.158Z,0
2018-06-14T03:22:06.996Z,0
2018-06-14T03:22:47.573Z,0
2018-06-14T03:23:27.979Z,0
2018-06-14T03:24:10.043Z,0
2018-06-14T03:24:50.134Z,0
2018-06-14T03:25:32.945Z,0
2018-06-14T03:26:13.434Z,0
2018-06-14T03:26:54.556Z,5
2018-06-14T03:27:34.745Z,5
2018-06-14T03:28:15.237Z,5
2018-06-14T03:28:55.780Z,5
2018-06-14T03:29:36.646Z,5
2018-06-14T03:30:18.342Z,5
2018-06-14T03:30:58.744Z,5
2018-06-14T03:31:39.219Z,5
2018-06-14T03:32:20.641Z,5
2018-06-14T03:33:01.000Z,5
2018-06-14T03:33:41.445Z,5
2018-06-14T03:34:21.968Z,5
2018-06-14T03:35:02.380Z,5
2018-06-14T03:35:43.701Z,5
2018-06-14T03:36:24.155Z,5
2018-06-14T03:37:04.589Z,5
2018-06-14T03:37:48.909Z,5
2018-06-14T03:38:28.890Z,10
2018-06-14T03:39:09.193Z,10
2018-06-14T03:39:49.873Z,10
2018-06-14T03:40:30.333Z,10
2018-06-14T03:41:10.685Z,10
2018-06-14T03:41:51.079Z,10
2018-06-14T03:42:31.776Z,10
2018-06-14T03:43:12.317Z,10
2018-06-14T03:43:52.618Z,10
2018-06-14T03:44:33.811Z,10
2018-06-14T03:45:14.174Z,10
2018-06-14T03:45:54.572Z,10
2018-06-14T03:46:34.970Z,10
2018-06-14T03:47:15.402Z,10
2018-06-14T03:47:55.823Z,10
2018-06-14T03:48:36.180Z,15
2018-06-14T03:49:16.634Z,15
2018-06-14T03:49:57.053Z,15
2018-06-14T03:50:37.463Z,15
2018-06-14T03:51:17.894Z,15
2018-06-14T03:51:58.371Z,15
2018-06-14T03:52:38.706Z,15
2018-06-14T03:53:19.198Z,15
2018-06-14T03:53:59.659Z,15
2018-06-14T03:54:40.032Z,15
2018-06-14T03:55:20.501Z,20
2018-06-14T03:56:00.865Z,20
2018-06-14T03:56:41.252Z,20
2018-06-14T03:57:21.677Z,20
2018-06-14T03:58:02.169Z,20
2018-06-14T03:58:42.644Z,20
2018-06-14T03:59:23.189Z,20
2018-06-14T04:00:03.714Z,20
2018-06-14T04:00:44.149Z,20
2018-06-14T04:01:26.081Z,20
2018-06-14T04:02:06.866Z,20
2018-06-14T04:02:47.155Z,20
2018-06-14T04:52:03.591Z,100
2018-06-14T04:52:43.981Z,105
2018-06-14T04:53:24.324Z,125
2018-06-14T04:54:04.783Z,125
2018-06-14T04:54:45.142Z,120
2018-06-14T04:55:25.512Z,130
2018-06-14T04:56:06.004Z,135
2018-06-14T04:56:46.410Z,150
2018-06-14T04:57:26.837Z,120
2018-06-14T04:58:07.977Z,95
2018-06-14T04:58:48.397Z,85
2018-06-14T04:59:28.803Z,85
2018-06-14T05:00:09.394Z,90
2018-06-14T05:00:49.754Z,110
2018-06-14T05:01:30.093Z,150
2018-06-14T05:02:10.661Z,170
2018-06-14T05:02:51.420Z,175
2018-06-14T05:03:31.900Z,180
2018-06-14T05:04:12.434Z,185
2018-06-14T05:04:52.814Z,180
2018-06-14T05:05:33.311Z,190
2018-06-14T05:06:13.768Z,195
2018-06-14T05:06:54.169Z,195
2018-06-14T05:07:34.519Z,200
2018-06-14T05:08:14.946Z,200
2018-06-14T05:08:55.454Z,205
2018-06-14T05:09:35.829Z,210
2018-06-14T05:10:16.268Z,215
2018-06-14T05:10:56.844Z,215
2018-06-14T05:11:37.300Z,220
2018-06-14T05:12:17.779Z,220
2018-06-14T05:12:58.131Z,225
2018-06-14T05:13:38.587Z,230
2018-06-14T05:14:18.941Z,235
2018-06-14T05:14:59.549Z,235
2018-06-14T05:15:39.794Z,240
2018-06-14T05:16:20.233Z,245
2018-06-14T05:17:01.024Z,250
2018-06-14T05:17:42.508Z,250
2018-06-14T05:18:22.833Z,255
2018-06-14T05:19:03.317Z,255
2018-06-14T05:19:43.766Z,260
2018-06-14T05:20:24.863Z,265
2018-06-14T05:21:05.250Z,275
2018-06-14T05:21:45.800Z,275
2018-06-14T05:22:26.187Z,280
2018-06-14T05:23:06.693Z,275
2018-06-14T05:23:47.303Z,265
2018-06-14T05:24:27.747Z,255
2018-06-14T05:25:08.173Z,245
2018-06-14T05:25:48.648Z,265
2018-06-14T05:26:29.025Z,260
2018-06-14T05:27:09.482Z,260
2018-06-14T05:27:49.853Z,270
2018-06-14T05:28:30.293Z,265
2018-06-14T05:29:10.730Z,250
2018-06-14T05:30:06.123Z,240
2018-06-14T05:30:46.468Z,265
2018-06-14T05:31:26.971Z,270
2018-06-14T05:32:07.321Z,270
2018-06-14T05:32:47.843Z,280
2018-06-14T05:33:28.423Z,280
2018-06-14T05:34:08.712Z,280
2018-06-14T05:34:49.190Z,285
2018-06-14T05:35:29.651Z,285
2018-06-14T05:36:10.960Z,280
2018-06-14T05:36:51.303Z,240
2018-06-14T05:37:32.045Z,260
2018-06-14T05:38:12.501Z,285
2018-06-14T05:38:52.867Z,290
2018-06-14T05:39:33.282Z,290
2018-06-14T05:40:13.658Z,295
2018-06-14T05:40:54.179Z,305
2018-06-14T05:41:34.538Z,300
2018-06-14T05:42:15.199Z,295
2018-06-14T05:42:55.587Z,300
2018-06-14T05:43:36.073Z,305
2018-06-14T05:44:16.513Z,305
2018-06-14T05:44:56.923Z,310
2018-06-14T05:45:37.532Z,310
2018-06-14T05:46:19.253Z,320
2018-06-14T05:47:00.239Z,320
2018-06-14T05:47:41.140Z,315
2018-06-14T05:48:21.241Z,320
2018-06-14T05:49:01.817Z,320
2018-06-14T05:49:43.571Z,320
2018-06-14T05:50:23.408Z,310
2018-06-14T05:51:03.915Z,325
2018-06-14T05:51:44.961Z,275
2018-06-14T05:52:40.389Z,255
2018-06-14T05:53:21.046Z,235
2018-06-14T05:54:01.713Z,210
2018-06-14T05:56:59.565Z,350
2018-06-14T05:57:44.075Z,355
2018-06-14T05:58:24.498Z,355
2018-06-14T05:59:05.157Z,360
2018-06-14T05:59:45.580Z,360
2018-06-14T06:00:26.184Z,370
2018-06-14T06:01:06.800Z,380
2018-06-14T06:01:48.634Z,385
2018-06-14T06:02:30.243Z,385
2018-06-14T06:03:11.833Z,380
2018-06-14T06:03:52.260Z,385
2018-06-14T06:04:32.665Z,395
2018-06-14T06:05:13.166Z,400
2018-06-14T06:05:53.531Z,415
2018-06-14T06:06:33.888Z,415
2018-06-14T06:07:14.345Z,425
2018-06-14T06:07:54.986Z,440
2018-06-14T06:08:35.307Z,445
2018-06-14T06:09:15.800Z,445
2018-06-14T06:09:56.241Z,445
2018-06-14T06:10:36.799Z,455
2018-06-14T06:11:17.255Z,465
2018-06-14T06:11:57.814Z,430
2018-06-14T06:12:38.135Z,435
2018-06-14T06:13:18.805Z,445
2018-06-14T06:13:59.209Z,475
2018-06-14T06:14:39.590Z,495
2018-06-14T06:15:20.468Z,520
2018-06-14T06:16:00.710Z,530
2018-06-14T06:16:41.191Z,550
2018-06-14T06:17:21.556Z,550
2018-06-14T06:18:01.964Z,555
2018-06-14T06:18:42.442Z,590
2018-06-14T06:19:26.347Z,745
2018-06-14T06:20:06.861Z,960
2018-06-14T06:20:47.177Z,1265
2018-06-14T06:21:27.608Z,1410
2018-06-14T06:22:07.963Z,1330
2018-06-14T06:22:48.477Z,1105
2018-06-14T06:23:28.833Z,900
2018-06-14T06:24:09.371Z,830
2018-06-14T06:24:49.926Z,660
2018-06-14T06:25:30.273Z,775
2018-06-14T06:26:10.804Z,865
2018-06-14T06:26:51.206Z,220
2018-06-14T06:27:31.715Z,225
2018-06-14T06:28:13.071Z,790
2018-06-14T06:28:53.443Z,990
2018-06-14T06:29:33.808Z,950
2018-06-14T06:30:14.248Z,990
2018-06-14T06:30:54.618Z,950
2018-06-14T06:31:35.002Z,950
2018-06-14T06:32:15.576Z,895
2018-06-14T06:32:55.993Z,315
2018-06-14T06:33:36.467Z,345
2018-06-14T06:34:16.857Z,410
2018-06-14T06:34:57.339Z,245
2018-06-14T06:35:37.720Z,905
2018-06-14T06:36:19.142Z,925
2018-06-14T06:36:59.396Z,965
2018-06-14T06:37:39.805Z,745
2018-06-14T06:38:20.218Z,550
2018-06-14T06:39:00.689Z,930
2018-06-14T06:39:41.024Z,430
2018-06-14T06:40:21.510Z,830
2018-06-14T06:41:01.977Z,700
2018-06-14T06:41:42.379Z,215
2018-06-14T06:42:22.914Z,215
2018-06-14T06:43:03.369Z,975
2018-06-14T06:46:31.851Z,1220
2018-06-14T06:47:12.309Z,805
2018-06-14T06:47:52.832Z,650
2018-06-14T06:48:33.177Z,620
2018-06-14T06:49:13.665Z,1245
2018-06-14T06:49:54.184Z,275
2018-06-14T06:50:34.512Z,700
2018-06-14T06:51:15.131Z,260
2018-06-14T06:51:55.549Z,450
2018-06-14T06:52:36.098Z,740
2018-06-14T06:53:16.510Z,645
2018-06-14T06:53:57.017Z,615
2018-06-14T06:54:37.405Z,615
2018-06-14T06:55:18.294Z,610
2018-06-14T06:55:58.587Z,615
2018-06-14T06:56:39.029Z,610
2018-06-14T06:57:19.445Z,605
2018-06-14T06:57:59.870Z,615
2018-06-14T06:58:40.388Z,620
2018-06-14T06:59:21.850Z,645
2018-06-14T07:00:02.812Z,680
2018-06-14T07:00:42.979Z,705
2018-06-14T07:01:24.043Z,490
2018-06-14T07:02:05.246Z,690
2018-06-14T07:02:45.495Z,650
2018-06-14T07:03:25.950Z,635
2018-06-14T07:04:06.804Z,625
2018-06-14T07:04:47.678Z,615
2018-06-14T07:05:28.181Z,600
2018-06-14T07:06:08.690Z,595
2018-06-14T07:06:49.012Z,590
2018-06-14T07:07:29.471Z,585
2018-06-14T07:08:11.184Z,590
2018-06-14T07:08:51.437Z,600
2018-06-14T07:09:31.861Z,575
2018-06-14T07:10:12.418Z,565
2018-06-14T07:10:54.932Z,565
2018-06-14T07:11:35.279Z,555
2018-06-14T07:12:15.806Z,545
2018-06-14T07:12:56.357Z,535
2018-06-14T07:13:36.675Z,575
2018-06-14T07:14:17.125Z,555
2018-06-14T07:14:57.545Z,560
2018-06-14T07:15:38.016Z,545
2018-06-14T07:16:18.382Z,520
2018-06-14T07:16:58.863Z,535
2018-06-14T07:17:39.192Z,580
2018-06-14T07:18:19.638Z,605
2018-06-14T07:19:00.084Z,615
2018-06-14T07:19:40.568Z,585
2018-06-14T07:20:21.858Z,555
2018-06-14T07:21:02.383Z,545
2018-06-14T07:21:42.734Z,530
2018-06-14T07:22:23.077Z,525
2018-06-14T07:23:03.481Z,520
2018-06-14T07:23:43.987Z,515
2018-06-14T07:24:24.518Z,530
2018-06-14T07:25:05.064Z,540
2018-06-14T07:25:45.333Z,520
2018-06-14T07:26:26.796Z,485
2018-06-14T07:27:07.364Z,470
2018-06-14T07:27:47.938Z,465
2018-06-14T07:28:30.364Z,430
2018-06-14T07:29:10.774Z,360
2018-06-14T07:29:51.207Z,325
2018-06-14T07:30:31.610Z,300
2018-06-14T07:31:12.033Z,285
2018-06-14T07:31:52.447Z,275
2018-06-14T07:32:32.876Z,270
2018-06-14T07:33:14.070Z,265
2018-06-14T07:33:54.492Z,260
2018-06-14T07:34:34.938Z,255
2018-06-14T07:35:15.378Z,245
2018-06-14T07:35:55.928Z,245
2018-06-14T07:36:36.646Z,240
2018-06-14T07:37:17.172Z,235
2018-06-14T07:37:57.604Z,230
2018-06-14T07:38:38.004Z,230
2018-06-14T07:39:18.544Z,225
2018-06-14T07:39:58.925Z,225
2018-06-14T07:40:39.261Z,215
2018-06-14T07:41:19.738Z,205
2018-06-14T07:42:00.162Z,205
2018-06-14T07:42:40.804Z,200
2018-06-14T07:43:21.065Z,195
2018-06-14T07:44:01.744Z,195
2018-06-14T07:44:42.095Z,190
2018-06-14T07:45:22.854Z,190
2018-06-14T07:46:03.311Z,180
2018-06-14T07:46:44.039Z,180
2018-06-14T07:47:24.468Z,180
2018-06-14T07:48:04.901Z,180
2018-06-14T07:48:45.399Z,180
2018-06-14T07:49:26.291Z,175
2018-06-14T07:50:08.581Z,175
2018-06-14T07:50:49.048Z,180
2018-06-14T07:51:29.919Z,175
2018-06-14T07:55:25.827Z,170
2018-06-14T07:57:46.411Z,170
2018-06-14T07:58:26.854Z,170
2018-06-14T07:59:07.590Z,165
2018-06-14T07:59:48.018Z,165
2018-06-14T08:00:28.774Z,165
2018-06-14T08:01:09.112Z,160
2018-06-14T08:01:49.928Z,145
2018-06-14T08:02:30.493Z,110
2018-06-14T08:03:12.272Z,150
2018-06-14T08:03:52.147Z,145
2018-06-14T08:04:32.544Z,145
2018-06-14T08:05:13.043Z,140
2018-06-14T08:05:53.492Z,140
2018-06-14T08:06:33.987Z,145
2018-06-14T08:07:14.371Z,150
2018-06-14T08:07:54.906Z,155
2018-06-14T08:10:43.045Z,155
2018-06-14T08:11:23.221Z,155
2018-06-14T08:12:12.046Z,150
2018-06-14T08:12:53.785Z,155
2018-06-14T08:13:37.943Z,150
2018-06-14T08:14:38.670Z,145
2018-06-14T08:15:20.122Z,140
2018-06-14T08:16:04.967Z,130
2018-06-14T08:16:45.324Z,125
2018-06-14T08:17:37.283Z,125
2018-06-14T08:18:20.854Z,125
2018-06-14T08:19:05.330Z,125
2018-06-14T08:19:49.087Z,130
2018-06-14T08:20:29.060Z,130
2018-06-14T08:24:32.666Z,130
2018-06-14T08:25:12.919Z,150
2018-06-14T08:25:53.378Z,155
2018-06-14T08:26:34.245Z,155
2018-06-14T08:27:14.819Z,155
2018-06-14T08:27:55.353Z,150
2018-06-14T08:28:35.826Z,145
2018-06-14T08:29:16.295Z,125
2018-06-14T08:29:56.665Z,140
2018-06-14T08:30:38.853Z,135
2018-06-14T08:31:19.375Z,135
2018-06-14T08:31:59.727Z,125
2018-06-14T08:32:41.084Z,130
2018-06-14T08:35:12.211Z,130
2018-06-14T08:35:52.677Z,130
2018-06-14T08:36:33.912Z,105
2018-06-14T08:37:14.556Z,110
2018-06-14T08:37:54.802Z,135
2018-06-14T08:38:36.065Z,135
2018-06-14T08:39:16.551Z,125
2018-06-14T08:39:57.488Z,115
2018-06-14T08:40:38.276Z,120
2018-06-14T08:43:09.181Z,115
2018-06-14T08:43:49.734Z,115
2018-06-14T08:44:30.936Z,115
2018-06-14T08:45:13.454Z,110
2018-06-14T08:45:58.331Z,110
2018-06-14T08:46:41.222Z,105
2018-06-14T08:47:21.554Z,100
2018-06-14T08:48:02.135Z,95
2018-06-14T08:48:43.583Z,95
2018-06-14T08:49:23.773Z,95
2018-06-14T08:50:06.571Z,90
2018-06-14T08:50:47.140Z,90
2018-06-14T08:51:28.442Z,85
2018-06-14T08:52:10.017Z,80
2018-06-14T08:52:51.600Z,75
2018-06-14T08:53:31.788Z,70
2018-06-14T08:54:12.819Z,70
2018-06-14T08:54:53.339Z,70
2018-06-14T08:59:03.904Z,70
2018-06-14T08:59:42.999Z,70
2018-06-14T09:00:23.500Z,70
2018-06-14T09:01:03.917Z,70
2018-06-14T09:01:44.453Z,70
2018-06-14T09:02:25.423Z,65
2018-06-14T09:03:05.983Z,65
2018-06-14T09:03:46.914Z,60
2018-06-14T09:04:27.822Z,60
2018-06-14T09:05:09.372Z,60
2018-06-14T09:05:49.615Z,55
2018-06-14T09:06:30.162Z,55
2018-06-14T09:07:10.851Z,55
2018-06-14T09:07:51.693Z,55
2018-06-14T09:08:33.404Z,55
2018-06-14T09:09:15.499Z,55
2018-06-14T09:09:55.582Z,60
2018-06-14T09:10:36.195Z,65
2018-06-14T09:11:17.484Z,80
2018-06-14T09:11:58.103Z,80
2018-06-14T09:12:40.673Z,90
2018-06-14T09:13:21.185Z,85
2018-06-14T09:14:04.199Z,90
2018-06-14T09:14:42.779Z,85
2018-06-14T09:15:24.337Z,85
2018-06-14T09:16:05.826Z,100
2018-06-14T09:16:46.826Z,95
2018-06-14T09:17:27.046Z,75
2018-06-14T09:18:07.621Z,100
2018-06-14T09:18:48.237Z,110
2018-06-14T09:19:31.831Z,110
2018-06-14T09:20:13.273Z,110
2018-06-14T09:20:53.593Z,115
2018-06-14T09:21:34.956Z,115
2018-06-14T09:22:15.310Z,110
2018-06-14T09:22:55.880Z,95
2018-06-14T09:23:36.633Z,100
2018-06-14T09:24:17.104Z,110
2018-06-14T09:24:58.504Z,115
2018-06-14T09:25:38.480Z,110
2018-06-14T09:26:19.025Z,120
2018-06-14T09:26:59.416Z,95
2018-06-14T09:27:41.979Z,125
2018-06-14T09:28:21.623Z,95
2018-06-14T09:29:02.167Z,120
2018-06-14T09:29:42.965Z,120
2018-06-14T09:32:23.034Z,110
2018-06-14T09:33:03.405Z,115
2018-06-14T09:33:43.997Z,110
2018-06-14T09:34:25.321Z,95
2018-06-14T09:35:05.268Z,75
2018-06-14T09:35:45.845Z,100
2018-06-14T09:36:26.858Z,85
2018-06-14T09:37:06.844Z,85
2018-06-14T09:37:47.213Z,105
2018-06-14T09:38:27.635Z,95
2018-06-14T09:39:08.460Z,95
2018-06-14T09:39:48.929Z,105
2018-06-14T09:40:29.356Z,110
2018-06-14T09:41:09.821Z,115
2018-06-14T09:41:50.346Z,115
2018-06-14T09:42:30.716Z,120
2018-06-14T09:43:11.278Z,115
2018-06-14T09:43:51.816Z,115
2018-06-14T09:44:32.307Z,115
2018-06-14T09:45:12.797Z,110
2018-06-14T09:45:53.257Z,110
2018-06-14T09:46:33.748Z,110
2018-06-14T09:47:14.343Z,80
2018-06-14T09:47:56.995Z,80
2018-06-14T09:48:37.230Z,105
2018-06-14T09:49:17.896Z,75
2018-06-14T09:49:59.190Z,95
2018-06-14T09:50:39.757Z,110
2018-06-14T09:51:20.226Z,100
2018-06-14T09:52:00.694Z,100
2018-06-14T09:52:41.383Z,105
2018-06-14T09:53:21.883Z,105
2018-06-14T09:54:02.469Z,110
2018-06-14T09:54:42.936Z,110
2018-06-14T09:55:23.496Z,105
2018-06-14T09:56:04.089Z,105
2018-06-14T09:56:44.835Z,105
2018-06-14T09:57:25.139Z,105
2018-06-14T09:58:06.066Z,105
2018-06-14T09:58:47.714Z,105
2018-06-14T09:59:28.134Z,105
2018-06-14T10:00:08.848Z,105
2018-06-14T10:00:49.285Z,100
2018-06-14T10:01:29.744Z,105
2018-06-14T10:02:10.562Z,105
2018-06-14T10:02:51.009Z,105
2018-06-14T10:03:31.423Z,105
2018-06-14T10:04:11.879Z,90
2018-06-14T10:44:52.483Z,90
2018-06-14T10:45:35.271Z,90
2018-06-14T10:46:17.116Z,90
2018-06-14T10:46:57.146Z,90
2018-06-14T10:47:37.631Z,90
2018-06-14T10:48:18.153Z,60
2018-06-14T10:48:58.710Z,60
2018-06-14T10:49:39.697Z,85
2018-06-14T10:50:19.921Z,90
2018-06-14T10:51:00.624Z,90
2018-06-14T10:51:41.371Z,90
2018-06-14T10:52:21.905Z,95
2018-06-14T10:53:03.047Z,65
2018-06-14T10:53:43.598Z,95
2018-06-14T10:54:24.360Z,95
2018-06-14T10:55:05.363Z,95
2018-06-14T10:55:46.497Z,95
2018-06-14T10:56:27.147Z,100
2018-06-14T10:57:07.664Z,85
2018-06-14T10:57:48.687Z,95
2018-06-14T10:58:29.840Z,75
2018-06-14T10:59:10.485Z,90
2018-06-14T10:59:52.865Z,75
2018-06-14T11:00:33.370Z,95
2018-06-14T11:01:14.280Z,90
2018-06-14T11:01:56.216Z,100
2018-06-14T11:02:37.017Z,100
2018-06-14T11:03:17.461Z,100
2018-06-14T11:03:58.691Z,100
2018-06-14T11:04:39.503Z,100
2018-06-14T11:05:21.306Z,90
2018-06-14T11:06:01.781Z,85
2018-06-14T11:06:42.222Z,85
2018-06-14T11:07:22.731Z,90
2018-06-14T11:08:04.464Z,90
2018-06-14T11:08:45.243Z,90
2018-06-14T11:09:25.798Z,85
2018-06-14T11:10:06.244Z,95
2018-06-14T11:10:46.872Z,90
2018-06-14T11:11:27.501Z,100
2018-06-14T11:12:08.073Z,105
2018-06-14T11:12:48.544Z,90
2018-06-14T11:13:28.919Z,85
2018-06-14T11:14:09.526Z,85
2018-06-14T11:14:49.794Z,105
2018-06-14T11:15:30.327Z,105
2018-06-14T11:16:11.566Z,105
2018-06-14T11:16:52.076Z,90
2018-06-14T11:17:32.578Z,90
2018-06-14T11:18:13.335Z,90
2018-06-14T11:18:55.745Z,85
2018-06-14T11:19:36.972Z,85
2018-06-14T11:20:17.500Z,85
2018-06-14T11:20:58.207Z,85
2018-06-14T11:21:39.449Z,85
2018-06-14T11:22:20.878Z,85
2018-06-14T11:23:00.549Z,80
2018-06-14T11:23:41.178Z,80
2018-06-14T11:24:21.657Z,80
2018-06-14T11:25:02.207Z,80
2018-06-14T11:25:43.718Z,80
2018-06-14T11:26:24.241Z,80
2018-06-14T11:27:04.385Z,80
2018-06-14T11:27:45.496Z,80
2018-06-14T11:28:25.940Z,80
2018-06-14T11:29:06.756Z,85
2018-06-14T11:29:47.122Z,85
2018-06-14T11:30:27.803Z,85
2018-06-14T11:31:08.400Z,85
2018-06-14T11:31:48.815Z,85
2018-06-14T11:32:29.233Z,85
2018-06-14T11:33:09.909Z,85